LELLGEML

Guest
Details From LELL - Sabadell
To GEML - MELILLA
Flight Number -
Tags decoded
Created
Modified
Stats Distance 444 nm / 822 km
Max Altitude 0 ft / 0 m
Waypoints 2
Social Downloads 0
Likes 0
Share VATSIM

Download

Looking for another format? Having issues loading an existing format? Contact us
Advertisement - Login to hide

Notes

Requested: LELL GEML

Route

LELL GEML

ID Type Via Altitude Latitude Longitude Leg Dist Tot Dist Heading (true) Name
O LELL APT - 0 ft / 0 m 41.52098˚ 2.10491˚ - 0 nm - Sabadell
O GEML APT - 0 ft / 0 m 35.28037˚ -2.95671˚ 443 nm 443 nm 214° / 211° MELILLA

Altitude Profile

Advertisement - Login to hide

Weather


0- 5 10 15 20 25 30 35+ Temperature / ° C

Clouds and Precipitation
Forecast for 2018-05-21 06:00 UTC. Updated an hour ago

Ground ~20,000 ft ~40,000 ft Winds

LELL

Details ICAO LELL (QSA)
Name Sabadell
Region Spain
Timezone Europe/Madrid (UTC+2.0)
Stats Elevation 465 ft / 142 m (AMSL)
Location 41.520977° 2.104912°
Runways 1
Magnetic Variation 0.869° E

METAR

LELL 210600Z 28002KT 9999 FEW040 14/13 Q1013

Decode

TAF

TAF LELL 210200Z 2103/2203 VRB03KT 9999 SCT040 TX23/2113Z TN12/2106Z BECMG 2112/2114 13010KT BECMG 2118/2120 VRB03KT

Decode

Departure Runways

ID Width Length Bearing (true) Bearing (mag) Surface Threshold Offset Overrun Length
13 98 ft / 30 m 2,956 ft / 901 m 127.50° 126.63° Asphalt 0 ft / 0 m 0 ft / 0 m
31 98 ft / 30 m 2,956 ft / 901 m 307.50° 306.63° Asphalt 0 ft / 0 m 0 ft / 0 m

GEML

Details ICAO GEML (MLN)
Name MELILLA
Region Ceuta and Melilla
Timezone Africa/Casablanca (UTC+0.0)
Stats Elevation 156 ft / 48 m (AMSL)
Location 35.280374° -2.956708°
Runways 1
Magnetic Variation 0.407° W

METAR

GEML 210600Z 00000KT 9999 FEW008 16/14 Q1012

Decode

TAF

TAF GEML 210200Z 2103/2203 08006KT 9999 FEW015 TX22/2112Z TN16/2105Z PROB30 TEMPO 2103/2109 BKN012

Decode

Destination Runways

ID Width Length Bearing (true) Bearing (mag) Surface Threshold Offset Overrun Length
15 148 ft / 45 m 4,811 ft / 1,466 m 146.39° 146.80° Asphalt 755 ft / 230 m 0 ft / 0 m
33 148 ft / 45 m 4,811 ft / 1,466 m 326.40° 326.81° Asphalt 0 ft / 0 m 0 ft / 0 m

Popular Alternatives